sensor_id;sensor_type;location;lat;lon;timestamp;temperature;humidity
56234;DHT22;42141;53.240;6.580;2022-08-21T00:01:26;15.90;99.90
56234;DHT22;42141;53.240;6.580;2022-08-21T00:03:54;15.90;99.90
56234;DHT22;42141;53.240;6.580;2022-08-21T00:06:21;15.80;99.90
56234;DHT22;42141;53.240;6.580;2022-08-21T00:08:46;15.80;99.90
56234;DHT22;42141;53.240;6.580;2022-08-21T00:11:15;15.80;99.90
56234;DHT22;42141;53.240;6.580;2022-08-21T00:13:41;15.70;99.90
56234;DHT22;42141;53.240;6.580;2022-08-21T00:16:06;15.70;99.90
56234;DHT22;42141;53.240;6.580;2022-08-21T00:18:32;15.70;99.90
56234;DHT22;42141;53.240;6.580;2022-08-21T00:20:58;15.70;99.90
56234;DHT22;42141;53.240;6.580;2022-08-21T00:23:24;15.60;99.90
56234;DHT22;42141;53.240;6.580;2022-08-21T00:25:50;15.60;99.90
56234;DHT22;42141;53.240;6.580;2022-08-21T00:28:16;16.00;99.90
56234;DHT22;42141;53.240;6.580;2022-08-21T00:30:43;15.50;99.90
56234;DHT22;42141;53.240;6.580;2022-08-21T00:33:09;15.70;99.90
56234;DHT22;42141;53.240;6.580;2022-08-21T00:35:37;15.50;99.90
56234;DHT22;42141;53.240;6.580;2022-08-21T00:38:06;15.60;99.90
56234;DHT22;42141;53.240;6.580;2022-08-21T00:40:37;15.50;99.90
56234;DHT22;42141;53.240;6.580;2022-08-21T00:43:07;15.50;99.90
56234;DHT22;42141;53.240;6.580;2022-08-21T00:45:34;15.50;99.90
56234;DHT22;42141;53.240;6.580;2022-08-21T00:48:00;15.50;99.90
56234;DHT22;42141;53.240;6.580;2022-08-21T00:50:30;15.40;99.90
56234;DHT22;42141;53.240;6.580;2022-08-21T00:52:57;15.40;99.90
56234;DHT22;42141;53.240;6.580;2022-08-21T00:55:24;15.40;99.90
56234;DHT22;42141;53.240;6.580;2022-08-21T00:57:52;15.30;99.90
56234;DHT22;42141;53.240;6.580;2022-08-21T01:00:26;15.30;99.90
56234;DHT22;42141;53.240;6.580;2022-08-21T01:02:55;15.40;99.90
56234;DHT22;42141;53.240;6.580;2022-08-21T01:05:21;15.60;99.90
56234;DHT22;42141;53.240;6.580;2022-08-21T01:07:47;15.40;99.90
56234;DHT22;42141;53.240;6.580;2022-08-21T01:10:13;15.30;99.90
56234;DHT22;42141;53.240;6.580;2022-08-21T01:12:40;15.40;99.90
56234;DHT22;42141;53.240;6.580;2022-08-21T01:15:06;15.20;99.90
56234;DHT22;42141;53.240;6.580;2022-08-21T01:17:33;15.30;99.90
56234;DHT22;42141;53.240;6.580;2022-08-21T01:20:01;15.30;99.90
56234;DHT22;42141;53.240;6.580;2022-08-21T01:22:28;15.30;99.90
56234;DHT22;42141;53.240;6.580;2022-08-21T01:24:53;15.30;99.90
56234;DHT22;42141;53.240;6.580;2022-08-21T01:27:19;15.10;99.90
56234;DHT22;42141;53.240;6.580;2022-08-21T01:29:57;15.10;99.90
56234;DHT22;42141;53.240;6.580;2022-08-21T01:32:24;15.00;99.90
56234;DHT22;42141;53.240;6.580;2022-08-21T01:34:51;15.00;99.90
56234;DHT22;42141;53.240;6.580;2022-08-21T01:37:18;14.90;99.90
56234;DHT22;42141;53.240;6.580;2022-08-21T01:39:45;15.00;99.90
56234;DHT22;42141;53.240;6.580;2022-08-21T01:42:13;15.00;99.90
56234;DHT22;42141;53.240;6.580;2022-08-21T01:44:39;14.80;99.90
56234;DHT22;42141;53.240;6.580;2022-08-21T01:47:07;14.80;99.90
56234;DHT22;42141;53.240;6.580;2022-08-21T01:49:35;14.70;99.90
56234;DHT22;42141;53.240;6.580;2022-08-21T01:52:01;14.70;99.90
56234;DHT22;42141;53.240;6.580;2022-08-21T01:54:27;14.70;99.90
56234;DHT22;42141;53.240;6.580;2022-08-21T01:56:53;14.80;99.90
56234;DHT22;42141;53.240;6.580;2022-08-21T01:59:21;14.90;99.90
56234;DHT22;42141;53.240;6.580;2022-08-21T02:01:46;16.10;99.90
56234;DHT22;42141;53.240;6.580;2022-08-21T02:04:12;15.50;99.90
56234;DHT22;42141;53.240;6.580;2022-08-21T02:06:38;15.10;99.90
56234;DHT22;42141;53.240;6.580;2022-08-21T02:09:05;15.10;99.90
56234;DHT22;42141;53.240;6.580;2022-08-21T02:11:32;15.10;99.90
56234;DHT22;42141;53.240;6.580;2022-08-21T02:13:58;15.20;99.90
56234;DHT22;42141;53.240;6.580;2022-08-21T02:16:23;15.20;99.90
56234;DHT22;42141;53.240;6.580;2022-08-21T02:18:49;15.20;99.90
56234;DHT22;42141;53.240;6.580;2022-08-21T02:21:15;16.00;99.90
56234;DHT22;42141;53.240;6.580;2022-08-21T02:23:40;15.20;99.90
56234;DHT22;42141;53.240;6.580;2022-08-21T02:26:07;15.30;99.90
56234;DHT22;42141;53.240;6.580;2022-08-21T02:28:34;15.30;99.90
56234;DHT22;42141;53.240;6.580;2022-08-21T02:31:00;15.30;99.90
56234;DHT22;42141;53.240;6.580;2022-08-21T02:33:27;15.40;99.90
56234;DHT22;42141;53.240;6.580;2022-08-21T02:35:53;15.30;99.90
56234;DHT22;42141;53.240;6.580;2022-08-21T02:38:23;15.40;99.90
56234;DHT22;42141;53.240;6.580;2022-08-21T02:40:50;15.40;99.90
56234;DHT22;42141;53.240;6.580;2022-08-21T02:43:17;15.40;99.90
56234;DHT22;42141;53.240;6.580;2022-08-21T02:45:44;15.50;99.90
56234;DHT22;42141;53.240;6.580;2022-08-21T02:48:15;15.50;99.90
56234;DHT22;42141;53.240;6.580;2022-08-21T02:50:46;15.50;99.90
56234;DHT22;42141;53.240;6.580;2022-08-21T02:53:14;15.60;99.90
56234;DHT22;42141;53.240;6.580;2022-08-21T02:55:46;15.70;99.90
56234;DHT22;42141;53.240;6.580;2022-08-21T02:58:14;15.70;99.90
56234;DHT22;42141;53.240;6.580;2022-08-21T03:00:40;15.80;99.90
56234;DHT22;42141;53.240;6.580;2022-08-21T03:03:06;15.70;99.90
56234;DHT22;42141;53.240;6.580;2022-08-21T03:05:34;15.80;99.90
56234;DHT22;42141;53.240;6.580;2022-08-21T03:08:01;15.70;99.90
56234;DHT22;42141;53.240;6.580;2022-08-21T03:10:28;15.80;99.90
56234;DHT22;42141;53.240;6.580;2022-08-21T03:12:54;15.80;99.90
56234;DHT22;42141;53.240;6.580;2022-08-21T03:15:21;16.40;99.90
56234;DHT22;42141;53.240;6.580;2022-08-21T03:17:49;15.80;99.90
56234;DHT22;42141;53.240;6.580;2022-08-21T03:20:18;15.80;99.90
56234;DHT22;42141;53.240;6.580;2022-08-21T03:22:48;15.80;99.90
56234;DHT22;42141;53.240;6.580;2022-08-21T03:25:14;15.80;99.90
56234;DHT22;42141;53.240;6.580;2022-08-21T03:27:39;15.90;99.90
56234;DHT22;42141;53.240;6.580;2022-08-21T03:30:06;15.90;99.90
56234;DHT22;42141;53.240;6.580;2022-08-21T03:32:33;15.90;99.90
56234;DHT22;42141;53.240;6.580;2022-08-21T03:34:59;15.90;99.90
56234;DHT22;42141;53.240;6.580;2022-08-21T03:37:25;15.90;99.90
56234;DHT22;42141;53.240;6.580;2022-08-21T03:39:51;15.90;99.90
56234;DHT22;42141;53.240;6.580;2022-08-21T03:42:17;15.90;99.90
56234;DHT22;42141;53.240;6.580;2022-08-21T03:44:43;15.90;99.90
56234;DHT22;42141;53.240;6.580;2022-08-21T03:47:09;15.80;99.90
56234;DHT22;42141;53.240;6.580;2022-08-21T03:49:35;15.90;99.90
56234;DHT22;42141;53.240;6.580;2022-08-21T03:52:01;15.90;99.90
56234;DHT22;42141;53.240;6.580;2022-08-21T03:54:27;15.90;99.90
56234;DHT22;42141;53.240;6.580;2022-08-21T03:56:52;15.80;99.90
56234;DHT22;42141;53.240;6.580;2022-08-21T03:59:18;15.80;99.90
56234;DHT22;42141;53.240;6.580;2022-08-21T04:01:57;15.80;99.90
56234;DHT22;42141;53.240;6.580;2022-08-21T04:04:24;15.80;99.90
56234;DHT22;42141;53.240;6.580;2022-08-21T04:06:50;15.80;99.90
56234;DHT22;42141;53.240;6.580;2022-08-21T04:09:17;15.80;99.90
56234;DHT22;42141;53.240;6.580;2022-08-21T04:11:43;15.80;99.90
56234;DHT22;42141;53.240;6.580;2022-08-21T04:14:09;15.80;99.90
56234;DHT22;42141;53.240;6.580;2022-08-21T04:16:35;15.80;99.90
56234;DHT22;42141;53.240;6.580;2022-08-21T04:19:01;15.80;99.90
56234;DHT22;42141;53.240;6.580;2022-08-21T04:21:26;15.80;99.90
56234;DHT22;42141;53.240;6.580;2022-08-21T04:23:54;15.80;99.90
56234;DHT22;42141;53.240;6.580;2022-08-21T04:26:21;15.70;99.90
56234;DHT22;42141;53.240;6.580;2022-08-21T04:28:46;15.80;99.90
56234;DHT22;42141;53.240;6.580;2022-08-21T04:31:12;15.70;99.90
56234;DHT22;42141;53.240;6.580;2022-08-21T04:33:38;15.70;99.90
56234;DHT22;42141;53.240;6.580;2022-08-21T04:36:04;15.80;99.90
56234;DHT22;42141;53.240;6.580;2022-08-21T04:38:30;15.80;99.90
56234;DHT22;42141;53.240;6.580;2022-08-21T04:40:58;15.80;99.90
56234;DHT22;42141;53.240;6.580;2022-08-21T04:43:24;15.80;99.90
56234;DHT22;42141;53.240;6.580;2022-08-21T04:45:51;15.80;99.90
56234;DHT22;42141;53.240;6.580;2022-08-21T04:48:19;15.80;99.90
56234;DHT22;42141;53.240;6.580;2022-08-21T04:51:03;15.80;99.90
56234;DHT22;42141;53.240;6.580;2022-08-21T04:53:38;15.80;99.90
56234;DHT22;42141;53.240;6.580;2022-08-21T04:56:15;15.90;99.90
56234;DHT22;42141;53.240;6.580;2022-08-21T04:58:41;16.40;99.90
56234;DHT22;42141;53.240;6.580;2022-08-21T05:01:11;16.00;99.90
56234;DHT22;42141;53.240;6.580;2022-08-21T05:03:37;16.00;99.90
56234;DHT22;42141;53.240;6.580;2022-08-21T05:06:05;16.00;99.90
56234;DHT22;42141;53.240;6.580;2022-08-21T05:08:32;16.00;99.90
56234;DHT22;42141;53.240;6.580;2022-08-21T05:10:59;16.10;99.90
56234;DHT22;42141;53.240;6.580;2022-08-21T05:13:24;15.70;99.90
56234;DHT22;42141;53.240;6.580;2022-08-21T05:15:50;16.10;99.90
56234;DHT22;42141;53.240;6.580;2022-08-21T05:18:16;16.10;99.90
56234;DHT22;42141;53.240;6.580;2022-08-21T05:20:42;16.20;99.90
56234;DHT22;42141;53.240;6.580;2022-08-21T05:23:09;16.20;99.90
56234;DHT22;42141;53.240;6.580;2022-08-21T05:25:36;16.20;99.90
56234;DHT22;42141;53.240;6.580;2022-08-21T05:28:02;16.30;99.90
56234;DHT22;42141;53.240;6.580;2022-08-21T05:30:28;16.30;99.90
56234;DHT22;42141;53.240;6.580;2022-08-21T05:32:58;16.40;99.90
56234;DHT22;42141;53.240;6.580;2022-08-21T05:35:25;16.40;99.90
56234;DHT22;42141;53.240;6.580;2022-08-21T05:37:51;16.40;99.90
56234;DHT22;42141;53.240;6.580;2022-08-21T05:40:16;16.50;99.90
56234;DHT22;42141;53.240;6.580;2022-08-21T05:42:43;16.50;99.90
56234;DHT22;42141;53.240;6.580;2022-08-21T05:45:09;16.50;99.90
56234;DHT22;42141;53.240;6.580;2022-08-21T05:47:35;16.60;99.90
56234;DHT22;42141;53.240;6.580;2022-08-21T05:50:00;16.60;99.90
56234;DHT22;42141;53.240;6.580;2022-08-21T05:52:26;16.70;99.90
56234;DHT22;42141;53.240;6.580;2022-08-21T05:54:52;16.70;99.90
56234;DHT22;42141;53.240;6.580;2022-08-21T05:57:20;16.80;99.90
56234;DHT22;42141;53.240;6.580;2022-08-21T05:59:46;16.80;99.90
56234;DHT22;42141;53.240;6.580;2022-08-21T06:02:11;16.90;99.90
56234;DHT22;42141;53.240;6.580;2022-08-21T06:04:38;16.90;99.90
56234;DHT22;42141;53.240;6.580;2022-08-21T06:07:05;17.00;99.90
56234;DHT22;42141;53.240;6.580;2022-08-21T06:09:31;17.00;99.90
56234;DHT22;42141;53.240;6.580;2022-08-21T06:11:57;17.10;99.90
56234;DHT22;42141;53.240;6.580;2022-08-21T06:14:23;17.10;99.90
56234;DHT22;42141;53.240;6.580;2022-08-21T06:16:49;17.20;99.90
56234;DHT22;42141;53.240;6.580;2022-08-21T06:19:14;17.20;99.90
56234;DHT22;42141;53.240;6.580;2022-08-21T06:21:40;17.30;99.90
56234;DHT22;42141;53.240;6.580;2022-08-21T06:24:06;17.60;99.90
56234;DHT22;42141;53.240;6.580;2022-08-21T06:26:32;17.40;99.90
56234;DHT22;42141;53.240;6.580;2022-08-21T06:28:58;17.40;99.90
56234;DHT22;42141;53.240;6.580;2022-08-21T06:31:26;17.40;99.90
56234;DHT22;42141;53.240;6.580;2022-08-21T06:33:53;17.50;99.90
56234;DHT22;42141;53.240;6.580;2022-08-21T06:36:19;17.50;99.90
56234;DHT22;42141;53.240;6.580;2022-08-21T06:38:46;17.60;99.90
56234;DHT22;42141;53.240;6.580;2022-08-21T06:41:13;17.70;99.90
56234;DHT22;42141;53.240;6.580;2022-08-21T06:43:39;17.70;99.90
56234;DHT22;42141;53.240;6.580;2022-08-21T06:46:05;17.80;99.90
56234;DHT22;42141;53.240;6.580;2022-08-21T06:48:31;17.90;99.90
56234;DHT22;42141;53.240;6.580;2022-08-21T06:50:59;17.90;99.90
56234;DHT22;42141;53.240;6.580;2022-08-21T06:53:26;18.00;99.90
56234;DHT22;42141;53.240;6.580;2022-08-21T06:55:52;18.10;99.90
56234;DHT22;42141;53.240;6.580;2022-08-21T06:58:17;18.20;99.90
56234;DHT22;42141;53.240;6.580;2022-08-21T07:00:47;18.30;99.90
56234;DHT22;42141;53.240;6.580;2022-08-21T07:03:18;18.40;99.90
56234;DHT22;42141;53.240;6.580;2022-08-21T07:05:44;18.40;99.90
56234;DHT22;42141;53.240;6.580;2022-08-21T07:08:10;18.50;99.90
56234;DHT22;42141;53.240;6.580;2022-08-21T07:10:35;18.60;99.90
56234;DHT22;42141;53.240;6.580;2022-08-21T07:13:01;18.70;99.90
56234;DHT22;42141;53.240;6.580;2022-08-21T07:15:28;18.50;99.90
56234;DHT22;42141;53.240;6.580;2022-08-21T07:17:54;18.80;99.90
56234;DHT22;42141;53.240;6.580;2022-08-21T07:20:20;18.90;99.90
56234;DHT22;42141;53.240;6.580;2022-08-21T07:22:46;19.00;99.90
56234;DHT22;42141;53.240;6.580;2022-08-21T07:25:12;19.10;99.90
56234;DHT22;42141;53.240;6.580;2022-08-21T07:27:37;19.10;99.90
56234;DHT22;42141;53.240;6.580;2022-08-21T07:30:04;19.30;99.90
56234;DHT22;42141;53.240;6.580;2022-08-21T07:32:30;19.40;99.90
56234;DHT22;42141;53.240;6.580;2022-08-21T07:34:56;19.50;99.90
56234;DHT22;42141;53.240;6.580;2022-08-21T07:37:22;19.50;99.90
56234;DHT22;42141;53.240;6.580;2022-08-21T07:39:48;19.60;99.90
56234;DHT22;42141;53.240;6.580;2022-08-21T07:42:15;19.80;99.90
56234;DHT22;42141;53.240;6.580;2022-08-21T07:44:40;19.80;99.90
56234;DHT22;42141;53.240;6.580;2022-08-21T07:47:06;19.90;99.90
56234;DHT22;42141;53.240;6.580;2022-08-21T07:49:32;20.00;99.90
56234;DHT22;42141;53.240;6.580;2022-08-21T07:51:57;20.00;99.90
56234;DHT22;42141;53.240;6.580;2022-08-21T07:54:23;20.40;99.90
56234;DHT22;42141;53.240;6.580;2022-08-21T07:56:49;20.20;99.90
56234;DHT22;42141;53.240;6.580;2022-08-21T07:59:15;20.20;99.90
56234;DHT22;42141;53.240;6.580;2022-08-21T08:01:40;20.20;99.90
56234;DHT22;42141;53.240;6.580;2022-08-21T08:04:06;20.30;99.90
56234;DHT22;42141;53.240;6.580;2022-08-21T08:06:32;20.50;99.90
56234;DHT22;42141;53.240;6.580;2022-08-21T08:08:58;20.60;99.90
56234;DHT22;42141;53.240;6.580;2022-08-21T08:11:23;20.60;99.90
56234;DHT22;42141;53.240;6.580;2022-08-21T08:13:51;20.70;99.90
56234;DHT22;42141;53.240;6.580;2022-08-21T08:16:18;20.80;99.90
56234;DHT22;42141;53.240;6.580;2022-08-21T08:18:44;20.90;99.90
56234;DHT22;42141;53.240;6.580;2022-08-21T08:21:11;21.00;99.90
56234;DHT22;42141;53.240;6.580;2022-08-21T08:23:37;21.10;99.90
56234;DHT22;42141;53.240;6.580;2022-08-21T08:26:03;21.20;99.90
56234;DHT22;42141;53.240;6.580;2022-08-21T08:28:30;21.30;99.90
56234;DHT22;42141;53.240;6.580;2022-08-21T08:30:58;21.40;99.90
56234;DHT22;42141;53.240;6.580;2022-08-21T08:33:24;21.50;99.90
56234;DHT22;42141;53.240;6.580;2022-08-21T08:35:51;21.50;99.90
56234;DHT22;42141;53.240;6.580;2022-08-21T08:38:19;21.50;99.90
56234;DHT22;42141;53.240;6.580;2022-08-21T08:43:30;21.60;99.90
56234;DHT22;42141;53.240;6.580;2022-08-21T08:45:58;21.70;99.90
56234;DHT22;42141;53.240;6.580;2022-08-21T08:48:56;21.90;99.90
56234;DHT22;42141;53.240;6.580;2022-08-21T08:51:37;22.10;99.90
56234;DHT22;42141;53.240;6.580;2022-08-21T08:54:09;22.20;99.90
56234;DHT22;42141;53.240;6.580;2022-08-21T08:56:36;22.30;99.90
56234;DHT22;42141;53.240;6.580;2022-08-21T08:59:41;22.30;99.90
56234;DHT22;42141;53.240;6.580;2022-08-21T09:02:11;22.40;99.90
56234;DHT22;42141;53.240;6.580;2022-08-21T09:04:37;22.50;99.90
56234;DHT22;42141;53.240;6.580;2022-08-21T09:07:22;22.80;99.90
56234;DHT22;42141;53.240;6.580;2022-08-21T09:10:19;22.60;99.90
56234;DHT22;42141;53.240;6.580;2022-08-21T09:13:03;22.60;99.90
56234;DHT22;42141;53.240;6.580;2022-08-21T09:16:09;22.80;99.90
56234;DHT22;42141;53.240;6.580;2022-08-21T09:21:28;22.80;99.90
56234;DHT22;42141;53.240;6.580;2022-08-21T09:27:13;22.80;99.90
56234;DHT22;42141;53.240;6.580;2022-08-21T09:29:46;22.70;99.90
56234;DHT22;42141;53.240;6.580;2022-08-21T09:32:19;22.60;99.90
56234;DHT22;42141;53.240;6.580;2022-08-21T09:45:36;22.60;99.90
56234;DHT22;42141;53.240;6.580;2022-08-21T09:48:15;22.80;99.90
56234;DHT22;42141;53.240;6.580;2022-08-21T09:50:43;23.00;99.90
56234;DHT22;42141;53.240;6.580;2022-08-21T09:53:22;23.00;99.90
56234;DHT22;42141;53.240;6.580;2022-08-21T09:56:02;22.90;99.90
56234;DHT22;42141;53.240;6.580;2022-08-21T09:58:49;23.00;99.90
56234;DHT22;42141;53.240;6.580;2022-08-21T10:01:19;23.20;99.90
56234;DHT22;42141;53.240;6.580;2022-08-21T10:03:46;23.20;99.90
56234;DHT22;42141;53.240;6.580;2022-08-21T10:06:27;23.40;99.90
56234;DHT22;42141;53.240;6.580;2022-08-21T10:09:15;23.60;99.90
56234;DHT22;42141;53.240;6.580;2022-08-21T10:11:47;23.80;99.90
56234;DHT22;42141;53.240;6.580;2022-08-21T10:20:00;24.30;99.90
56234;DHT22;42141;53.240;6.580;2022-08-21T10:22:44;24.40;99.90
56234;DHT22;42141;53.240;6.580;2022-08-21T10:25:19;24.60;99.90
56234;DHT22;42141;53.240;6.580;2022-08-21T10:30:52;25.70;99.90
56234;DHT22;42141;53.240;6.580;2022-08-21T10:33:44;25.00;99.90
56234;DHT22;42141;53.240;6.580;2022-08-21T10:36:17;25.10;99.90
56234;DHT22;42141;53.240;6.580;2022-08-21T10:47:03;24.00;99.90
56234;DHT22;42141;53.240;6.580;2022-08-21T10:49:57;23.90;99.90
56234;DHT22;42141;53.240;6.580;2022-08-21T10:55:22;23.70;99.90
56234;DHT22;42141;53.240;6.580;2022-08-21T10:58:14;23.60;99.90
56234;DHT22;42141;53.240;6.580;2022-08-21T11:00:50;23.50;99.90
56234;DHT22;42141;53.240;6.580;2022-08-21T11:03:32;23.40;99.90
56234;DHT22;42141;53.240;6.580;2022-08-21T11:06:05;23.40;99.90
56234;DHT22;42141;53.240;6.580;2022-08-21T11:08:46;23.30;99.90
56234;DHT22;42141;53.240;6.580;2022-08-21T11:11:18;23.30;99.90
56234;DHT22;42141;53.240;6.580;2022-08-21T11:13:48;23.40;99.90
56234;DHT22;42141;53.240;6.580;2022-08-21T11:18:55;23.70;99.90
56234;DHT22;42141;53.240;6.580;2022-08-21T11:24:03;24.10;99.90
56234;DHT22;42141;53.240;6.580;2022-08-21T11:26:41;24.50;99.90
56234;DHT22;42141;53.240;6.580;2022-08-21T11:29:27;24.70;99.90
56234;DHT22;42141;53.240;6.580;2022-08-21T11:35:37;25.00;99.90
56234;DHT22;42141;53.240;6.580;2022-08-21T11:41:17;25.30;99.90
56234;DHT22;42141;53.240;6.580;2022-08-21T11:51:51;25.50;99.50
56234;DHT22;42141;53.240;6.580;2022-08-21T11:54:27;25.50;99.20
56234;DHT22;42141;53.240;6.580;2022-08-21T11:56:59;25.80;99.20
56234;DHT22;42141;53.240;6.580;2022-08-21T11:59:42;25.10;99.90
56234;DHT22;42141;53.240;6.580;2022-08-21T12:02:18;24.90;99.90
56234;DHT22;42141;53.240;6.580;2022-08-21T12:04:53;24.70;99.90
56234;DHT22;42141;53.240;6.580;2022-08-21T12:09:58;24.50;99.90
56234;DHT22;42141;53.240;6.580;2022-08-21T12:12:36;24.50;99.90
56234;DHT22;42141;53.240;6.580;2022-08-21T12:15:15;24.60;99.90
56234;DHT22;42141;53.240;6.580;2022-08-21T12:20:39;25.20;99.90
56234;DHT22;42141;53.240;6.580;2022-08-21T12:25:58;26.10;98.10
56234;DHT22;42141;53.240;6.580;2022-08-21T12:28:26;26.00;96.30
56234;DHT22;42141;53.240;6.580;2022-08-21T12:30:54;25.30;96.80
56234;DHT22;42141;53.240;6.580;2022-08-21T12:33:27;25.50;96.50
56234;DHT22;42141;53.240;6.580;2022-08-21T12:36:12;25.50;97.20
56234;DHT22;42141;53.240;6.580;2022-08-21T12:39:10;25.50;96.10
56234;DHT22;42141;53.240;6.580;2022-08-21T12:41:45;25.80;95.80
56234;DHT22;42141;53.240;6.580;2022-08-21T12:44:19;26.00;95.80
56234;DHT22;42141;53.240;6.580;2022-08-21T12:47:03;26.00;95.60
56234;DHT22;42141;53.240;6.580;2022-08-21T12:49:34;26.00;94.20
56234;DHT22;42141;53.240;6.580;2022-08-21T12:54:43;25.50;94.70
56234;DHT22;42141;53.240;6.580;2022-08-21T12:57:24;25.40;94.60
56234;DHT22;42141;53.240;6.580;2022-08-21T13:00:02;25.30;93.80
56234;DHT22;42141;53.240;6.580;2022-08-21T13:02:37;25.10;93.40
56234;DHT22;42141;53.240;6.580;2022-08-21T13:05:06;25.10;92.20
56234;DHT22;42141;53.240;6.580;2022-08-21T13:07:35;24.90;92.90
56234;DHT22;42141;53.240;6.580;2022-08-21T13:10:06;24.70;92.50
56234;DHT22;42141;53.240;6.580;2022-08-21T13:12:33;24.60;92.50
56234;DHT22;42141;53.240;6.580;2022-08-21T13:15:04;24.80;93.40
56234;DHT22;42141;53.240;6.580;2022-08-21T13:17:36;25.00;92.60
56234;DHT22;42141;53.240;6.580;2022-08-21T13:20:06;25.40;92.20
56234;DHT22;42141;53.240;6.580;2022-08-21T13:22:41;25.80;91.00
56234;DHT22;42141;53.240;6.580;2022-08-21T13:25:14;26.20;89.00
56234;DHT22;42141;53.240;6.580;2022-08-21T13:27:41;26.30;88.60
56234;DHT22;42141;53.240;6.580;2022-08-21T13:30:19;26.20;88.70
56234;DHT22;42141;53.240;6.580;2022-08-21T13:32:49;26.00;88.00
56234;DHT22;42141;53.240;6.580;2022-08-21T13:35:25;25.70;89.80
56234;DHT22;42141;53.240;6.580;2022-08-21T13:37:52;25.50;90.80
56234;DHT22;42141;53.240;6.580;2022-08-21T13:40:29;25.30;91.40
56234;DHT22;42141;53.240;6.580;2022-08-21T13:42:56;25.30;91.90
56234;DHT22;42141;53.240;6.580;2022-08-21T13:45:25;25.20;91.70
56234;DHT22;42141;53.240;6.580;2022-08-21T13:47:53;25.00;91.20
56234;DHT22;42141;53.240;6.580;2022-08-21T13:50:22;24.90;91.60
56234;DHT22;42141;53.240;6.580;2022-08-21T13:52:58;24.90;92.30
56234;DHT22;42141;53.240;6.580;2022-08-21T13:55:25;24.80;92.20
56234;DHT22;42141;53.240;6.580;2022-08-21T13:58:01;24.80;92.50
56234;DHT22;42141;53.240;6.580;2022-08-21T14:00:29;25.00;93.20
56234;DHT22;42141;53.240;6.580;2022-08-21T14:03:03;25.10;93.00
56234;DHT22;42141;53.240;6.580;2022-08-21T14:05:32;25.20;93.10
56234;DHT22;42141;53.240;6.580;2022-08-21T14:08:05;25.10;93.30
56234;DHT22;42141;53.240;6.580;2022-08-21T14:10:31;25.10;93.40
56234;DHT22;42141;53.240;6.580;2022-08-21T14:13:06;25.00;93.50
56234;DHT22;42141;53.240;6.580;2022-08-21T14:15:34;24.90;94.00
56234;DHT22;42141;53.240;6.580;2022-08-21T14:18:14;24.80;94.80
56234;DHT22;42141;53.240;6.580;2022-08-21T14:20:41;24.70;94.90
56234;DHT22;42141;53.240;6.580;2022-08-21T14:23:07;24.60;95.20
56234;DHT22;42141;53.240;6.580;2022-08-21T14:25:41;24.40;95.50
56234;DHT22;42141;53.240;6.580;2022-08-21T14:30:54;24.20;96.00
56234;DHT22;42141;53.240;6.580;2022-08-21T14:33:31;24.10;97.00
56234;DHT22;42141;53.240;6.580;2022-08-21T14:35:57;24.00;98.40
56234;DHT22;42141;53.240;6.580;2022-08-21T14:38:25;23.90;99.10
56234;DHT22;42141;53.240;6.580;2022-08-21T14:40:57;23.90;99.60
56234;DHT22;42141;53.240;6.580;2022-08-21T14:43:25;23.90;99.90
56234;DHT22;42141;53.240;6.580;2022-08-21T14:45:51;23.90;99.90
56234;DHT22;42141;53.240;6.580;2022-08-21T14:48:17;24.00;99.90
56234;DHT22;42141;53.240;6.580;2022-08-21T14:50:42;24.00;99.90
56234;DHT22;42141;53.240;6.580;2022-08-21T14:53:08;24.00;99.90
56234;DHT22;42141;53.240;6.580;2022-08-21T14:55:35;24.00;99.90
56234;DHT22;42141;53.240;6.580;2022-08-21T14:58:22;24.00;99.90
56234;DHT22;42141;53.240;6.580;2022-08-21T15:00:49;24.00;99.90
56234;DHT22;42141;53.240;6.580;2022-08-21T15:03:16;24.00;99.90
56234;DHT22;42141;53.240;6.580;2022-08-21T15:05:41;24.10;99.90
56234;DHT22;42141;53.240;6.580;2022-08-21T15:08:07;24.10;99.90
56234;DHT22;42141;53.240;6.580;2022-08-21T15:10:34;24.10;99.90
56234;DHT22;42141;53.240;6.580;2022-08-21T15:13:01;24.30;99.90
56234;DHT22;42141;53.240;6.580;2022-08-21T15:15:28;24.60;99.90
56234;DHT22;42141;53.240;6.580;2022-08-21T15:17:54;24.80;99.90
56234;DHT22;42141;53.240;6.580;2022-08-21T15:20:19;24.90;99.90
56234;DHT22;42141;53.240;6.580;2022-08-21T15:22:45;25.00;99.90
56234;DHT22;42141;53.240;6.580;2022-08-21T15:25:11;25.00;99.90
56234;DHT22;42141;53.240;6.580;2022-08-21T15:27:37;24.80;99.90
56234;DHT22;42141;53.240;6.580;2022-08-21T15:30:04;24.60;99.90
56234;DHT22;42141;53.240;6.580;2022-08-21T15:32:30;24.50;99.90
56234;DHT22;42141;53.240;6.580;2022-08-21T15:34:57;24.40;99.90
56234;DHT22;42141;53.240;6.580;2022-08-21T15:37:23;24.50;99.90
56234;DHT22;42141;53.240;6.580;2022-08-21T15:39:50;24.60;99.90
56234;DHT22;42141;53.240;6.580;2022-08-21T15:42:16;24.70;99.90
56234;DHT22;42141;53.240;6.580;2022-08-21T15:44:43;24.60;99.90
56234;DHT22;42141;53.240;6.580;2022-08-21T15:47:13;25.00;99.90
56234;DHT22;42141;53.240;6.580;2022-08-21T15:49:40;24.10;99.90
56234;DHT22;42141;53.240;6.580;2022-08-21T15:52:08;24.20;99.90
56234;DHT22;42141;53.240;6.580;2022-08-21T15:54:34;24.10;99.90
56234;DHT22;42141;53.240;6.580;2022-08-21T15:56:59;24.00;99.90
56234;DHT22;42141;53.240;6.580;2022-08-21T15:59:25;24.00;99.90
56234;DHT22;42141;53.240;6.580;2022-08-21T16:01:52;24.00;99.90
56234;DHT22;42141;53.240;6.580;2022-08-21T16:04:24;23.90;99.90
56234;DHT22;42141;53.240;6.580;2022-08-21T16:06:51;23.90;99.90
56234;DHT22;42141;53.240;6.580;2022-08-21T16:09:17;23.90;99.90
56234;DHT22;42141;53.240;6.580;2022-08-21T16:11:43;23.80;99.90
56234;DHT22;42141;53.240;6.580;2022-08-21T16:14:12;23.70;99.90
56234;DHT22;42141;53.240;6.580;2022-08-21T16:16:38;23.50;99.90
56234;DHT22;42141;53.240;6.580;2022-08-21T16:19:04;23.40;99.90
56234;DHT22;42141;53.240;6.580;2022-08-21T16:21:32;23.30;99.90
56234;DHT22;42141;53.240;6.580;2022-08-21T16:23:58;23.20;99.90
56234;DHT22;42141;53.240;6.580;2022-08-21T16:26:24;23.10;99.90
56234;DHT22;42141;53.240;6.580;2022-08-21T16:28:52;23.10;99.90
56234;DHT22;42141;53.240;6.580;2022-08-21T16:31:19;23.60;99.90
56234;DHT22;42141;53.240;6.580;2022-08-21T16:33:49;23.10;99.90
56234;DHT22;42141;53.240;6.580;2022-08-21T16:36:16;23.20;99.90
56234;DHT22;42141;53.240;6.580;2022-08-21T16:38:42;23.10;99.90
56234;DHT22;42141;53.240;6.580;2022-08-21T16:41:11;23.10;99.90
56234;DHT22;42141;53.240;6.580;2022-08-21T16:43:38;23.00;99.90
56234;DHT22;42141;53.240;6.580;2022-08-21T16:46:04;23.00;99.90
56234;DHT22;42141;53.240;6.580;2022-08-21T16:48:30;22.90;99.90
56234;DHT22;42141;53.240;6.580;2022-08-21T16:50:57;22.80;99.90
56234;DHT22;42141;53.240;6.580;2022-08-21T16:53:23;22.80;99.90
56234;DHT22;42141;53.240;6.580;2022-08-21T16:55:50;22.70;99.90